sensor_id;sensor_type;location;lat;lon;timestamp;P1;durP1;ratioP1;P2;durP2;ratioP2
24787;SDS011;12883;52.662;5.196;2022-08-19T00:00:44;5.57;;;5.57;;
24787;SDS011;12883;52.662;5.196;2022-08-19T00:03:09;6.50;;;6.50;;
24787;SDS011;12883;52.662;5.196;2022-08-19T00:05:35;6.63;;;6.63;;
24787;SDS011;12883;52.662;5.196;2022-08-19T00:08:00;6.65;;;6.65;;
24787;SDS011;12883;52.662;5.196;2022-08-19T00:10:26;6.70;;;6.70;;
24787;SDS011;12883;52.662;5.196;2022-08-19T00:12:51;6.32;;;6.32;;
24787;SDS011;12883;52.662;5.196;2022-08-19T00:15:18;6.57;;;6.57;;
24787;SDS011;12883;52.662;5.196;2022-08-19T00:17:46;6.75;;;6.75;;
24787;SDS011;12883;52.662;5.196;2022-08-19T00:20:13;6.50;;;6.50;;
24787;SDS011;12883;52.662;5.196;2022-08-19T00:22:42;6.95;;;6.95;;
24787;SDS011;12883;52.662;5.196;2022-08-19T00:25:09;7.07;;;7.07;;
24787;SDS011;12883;52.662;5.196;2022-08-19T00:27:34;7.13;;;7.13;;
24787;SDS011;12883;52.662;5.196;2022-08-19T00:29:59;7.78;;;7.78;;
24787;SDS011;12883;52.662;5.196;2022-08-19T00:32:27;7.63;;;7.63;;
24787;SDS011;12883;52.662;5.196;2022-08-19T00:34:53;7.70;;;7.70;;
24787;SDS011;12883;52.662;5.196;2022-08-19T00:37:23;8.38;;;8.38;;
24787;SDS011;12883;52.662;5.196;2022-08-19T00:39:51;8.98;;;8.98;;
24787;SDS011;12883;52.662;5.196;2022-08-19T00:42:17;8.50;;;8.50;;
24787;SDS011;12883;52.662;5.196;2022-08-19T00:44:43;7.95;;;7.95;;
24787;SDS011;12883;52.662;5.196;2022-08-19T00:47:08;8.05;;;8.05;;
24787;SDS011;12883;52.662;5.196;2022-08-19T00:49:35;4.32;;;4.32;;
24787;SDS011;12883;52.662;5.196;2022-08-19T00:52:29;1.00;;;1.00;;
24787;SDS011;12883;52.662;5.196;2022-08-19T00:54:58;0.40;;;0.40;;
24787;SDS011;12883;52.662;5.196;2022-08-19T00:57:30;0.40;;;0.40;;
24787;SDS011;12883;52.662;5.196;2022-08-19T01:00:01;8.30;;;8.30;;
24787;SDS011;12883;52.662;5.196;2022-08-19T01:02:30;8.50;;;8.50;;
24787;SDS011;12883;52.662;5.196;2022-08-19T01:04:57;9.23;;;9.23;;
24787;SDS011;12883;52.662;5.196;2022-08-19T01:07:22;9.02;;;9.02;;
24787;SDS011;12883;52.662;5.196;2022-08-19T01:09:49;9.50;;;9.50;;
24787;SDS011;12883;52.662;5.196;2022-08-19T01:12:14;9.82;;;9.82;;
24787;SDS011;12883;52.662;5.196;2022-08-19T01:14:40;10.10;;;10.10;;
24787;SDS011;12883;52.662;5.196;2022-08-19T01:17:07;9.82;;;9.82;;
24787;SDS011;12883;52.662;5.196;2022-08-19T01:19:35;10.13;;;10.13;;
24787;SDS011;12883;52.662;5.196;2022-08-19T01:24:43;9.30;;;9.30;;
24787;SDS011;12883;52.662;5.196;2022-08-19T01:27:08;9.57;;;9.57;;
24787;SDS011;12883;52.662;5.196;2022-08-19T01:29:34;10.27;;;10.27;;
24787;SDS011;12883;52.662;5.196;2022-08-19T01:32:03;11.13;;;11.13;;
24787;SDS011;12883;52.662;5.196;2022-08-19T01:34:29;10.23;;;10.23;;
24787;SDS011;12883;52.662;5.196;2022-08-19T01:36:54;11.23;;;11.23;;
24787;SDS011;12883;52.662;5.196;2022-08-19T01:39:23;11.35;;;11.35;;
24787;SDS011;12883;52.662;5.196;2022-08-19T01:41:49;11.80;;;11.80;;
24787;SDS011;12883;52.662;5.196;2022-08-19T01:44:20;11.38;;;11.38;;
24787;SDS011;12883;52.662;5.196;2022-08-19T01:46:48;10.50;;;10.50;;
24787;SDS011;12883;52.662;5.196;2022-08-19T01:49:15;9.73;;;9.73;;
24787;SDS011;12883;52.662;5.196;2022-08-19T01:51:43;3.85;;;3.85;;
24787;SDS011;12883;52.662;5.196;2022-08-19T01:54:10;0.60;;;0.60;;
24787;SDS011;12883;52.662;5.196;2022-08-19T01:56:37;0.55;;;0.55;;
24787;SDS011;12883;52.662;5.196;2022-08-19T01:59:04;10.23;;;10.23;;
24787;SDS011;12883;52.662;5.196;2022-08-19T02:01:35;10.45;;;10.45;;
24787;SDS011;12883;52.662;5.196;2022-08-19T02:04:00;11.18;;;11.18;;
24787;SDS011;12883;52.662;5.196;2022-08-19T02:06:26;11.52;;;11.52;;
24787;SDS011;12883;52.662;5.196;2022-08-19T02:08:52;12.50;;;12.50;;
24787;SDS011;12883;52.662;5.196;2022-08-19T02:11:20;12.88;;;12.88;;
24787;SDS011;12883;52.662;5.196;2022-08-19T02:13:51;13.07;;;13.07;;
24787;SDS011;12883;52.662;5.196;2022-08-19T02:16:18;13.63;;;13.63;;
24787;SDS011;12883;52.662;5.196;2022-08-19T02:18:44;13.88;;;13.88;;
24787;SDS011;12883;52.662;5.196;2022-08-19T02:21:09;13.57;;;13.57;;
24787;SDS011;12883;52.662;5.196;2022-08-19T02:23:35;13.30;;;13.30;;
24787;SDS011;12883;52.662;5.196;2022-08-19T02:26:01;14.52;;;14.52;;
24787;SDS011;12883;52.662;5.196;2022-08-19T02:28:26;13.77;;;13.77;;
24787;SDS011;12883;52.662;5.196;2022-08-19T02:30:52;13.63;;;13.63;;
24787;SDS011;12883;52.662;5.196;2022-08-19T02:33:17;13.90;;;13.90;;
24787;SDS011;12883;52.662;5.196;2022-08-19T02:35:43;14.75;;;14.65;;
24787;SDS011;12883;52.662;5.196;2022-08-19T02:38:09;13.63;;;13.63;;
24787;SDS011;12883;52.662;5.196;2022-08-19T02:40:51;15.02;;;15.02;;
24787;SDS011;12883;52.662;5.196;2022-08-19T02:43:18;14.65;;;14.65;;
24787;SDS011;12883;52.662;5.196;2022-08-19T02:45:45;13.40;;;13.40;;
24787;SDS011;12883;52.662;5.196;2022-08-19T02:48:13;12.13;;;12.13;;
24787;SDS011;12883;52.662;5.196;2022-08-19T02:50:42;11.63;;;11.63;;
24787;SDS011;12883;52.662;5.196;2022-08-19T02:53:07;1.05;;;1.05;;
24787;SDS011;12883;52.662;5.196;2022-08-19T02:55:33;0.60;;;0.60;;
24787;SDS011;12883;52.662;5.196;2022-08-19T02:57:58;0.70;;;0.70;;
24787;SDS011;12883;52.662;5.196;2022-08-19T03:00:24;14.88;;;14.88;;
24787;SDS011;12883;52.662;5.196;2022-08-19T03:02:51;15.95;;;15.90;;
24787;SDS011;12883;52.662;5.196;2022-08-19T03:05:16;15.55;;;15.55;;
24787;SDS011;12883;52.662;5.196;2022-08-19T03:07:42;16.67;;;16.67;;
24787;SDS011;12883;52.662;5.196;2022-08-19T03:10:07;15.63;;;15.63;;
24787;SDS011;12883;52.662;5.196;2022-08-19T03:12:37;17.60;;;17.60;;
24787;SDS011;12883;52.662;5.196;2022-08-19T03:15:03;17.83;;;17.83;;
24787;SDS011;12883;52.662;5.196;2022-08-19T03:17:31;17.27;;;17.27;;
24787;SDS011;12883;52.662;5.196;2022-08-19T03:19:56;18.02;;;17.92;;
24787;SDS011;12883;52.662;5.196;2022-08-19T03:22:22;16.92;;;16.90;;
24787;SDS011;12883;52.662;5.196;2022-08-19T03:24:47;18.20;;;18.10;;
24787;SDS011;12883;52.662;5.196;2022-08-19T03:27:13;18.08;;;18.05;;
24787;SDS011;12883;52.662;5.196;2022-08-19T03:29:39;17.80;;;17.80;;
24787;SDS011;12883;52.662;5.196;2022-08-19T03:32:05;19.58;;;19.48;;
24787;SDS011;12883;52.662;5.196;2022-08-19T03:34:31;19.55;;;19.52;;
24787;SDS011;12883;52.662;5.196;2022-08-19T03:37:02;19.20;;;19.10;;
24787;SDS011;12883;52.662;5.196;2022-08-19T03:39:30;19.80;;;19.70;;
24787;SDS011;12883;52.662;5.196;2022-08-19T03:41:55;19.70;;;19.60;;
24787;SDS011;12883;52.662;5.196;2022-08-19T03:44:23;21.83;;;21.73;;
24787;SDS011;12883;52.662;5.196;2022-08-19T03:46:50;18.70;;;18.60;;
24787;SDS011;12883;52.662;5.196;2022-08-19T03:49:19;16.63;;;16.58;;
24787;SDS011;12883;52.662;5.196;2022-08-19T03:51:45;5.50;;;5.50;;
24787;SDS011;12883;52.662;5.196;2022-08-19T03:54:12;0.90;;;0.90;;
24787;SDS011;12883;52.662;5.196;2022-08-19T03:56:39;0.88;;;0.88;;
24787;SDS011;12883;52.662;5.196;2022-08-19T03:59:10;18.20;;;18.20;;
24787;SDS011;12883;52.662;5.196;2022-08-19T04:01:38;20.50;;;20.40;;
24787;SDS011;12883;52.662;5.196;2022-08-19T04:04:04;21.77;;;21.67;;
24787;SDS011;12883;52.662;5.196;2022-08-19T04:06:31;19.70;;;19.60;;
24787;SDS011;12883;52.662;5.196;2022-08-19T04:08:59;19.25;;;19.15;;
24787;SDS011;12883;52.662;5.196;2022-08-19T04:11:27;19.23;;;19.13;;
24787;SDS011;12883;52.662;5.196;2022-08-19T04:13:55;18.63;;;18.52;;
24787;SDS011;12883;52.662;5.196;2022-08-19T04:16:21;17.55;;;17.45;;
24787;SDS011;12883;52.662;5.196;2022-08-19T04:18:48;17.50;;;17.40;;
24787;SDS011;12883;52.662;5.196;2022-08-19T04:21:15;18.48;;;18.38;;
24787;SDS011;12883;52.662;5.196;2022-08-19T04:23:46;18.90;;;18.80;;
24787;SDS011;12883;52.662;5.196;2022-08-19T04:26:13;19.02;;;18.92;;
24787;SDS011;12883;52.662;5.196;2022-08-19T04:28:40;20.65;;;20.55;;
24787;SDS011;12883;52.662;5.196;2022-08-19T04:31:11;20.48;;;20.38;;
24787;SDS011;12883;52.662;5.196;2022-08-19T04:33:39;20.98;;;20.88;;
24787;SDS011;12883;52.662;5.196;2022-08-19T04:36:04;22.23;;;22.13;;
24787;SDS011;12883;52.662;5.196;2022-08-19T04:38:30;25.33;;;25.23;;
24787;SDS011;12883;52.662;5.196;2022-08-19T04:40:55;27.50;;;27.40;;
24787;SDS011;12883;52.662;5.196;2022-08-19T04:43:39;25.92;;;25.83;;
24787;SDS011;12883;52.662;5.196;2022-08-19T04:46:08;23.83;;;23.73;;
24787;SDS011;12883;52.662;5.196;2022-08-19T04:48:38;22.63;;;22.52;;
24787;SDS011;12883;52.662;5.196;2022-08-19T04:51:09;20.98;;;20.88;;
24787;SDS011;12883;52.662;5.196;2022-08-19T04:53:37;1.42;;;1.42;;
24787;SDS011;12883;52.662;5.196;2022-08-19T04:56:05;0.80;;;0.80;;
24787;SDS011;12883;52.662;5.196;2022-08-19T04:58:43;15.27;;;15.27;;
24787;SDS011;12883;52.662;5.196;2022-08-19T05:01:11;26.40;;;26.30;;
24787;SDS011;12883;52.662;5.196;2022-08-19T05:03:38;26.85;;;26.75;;
24787;SDS011;12883;52.662;5.196;2022-08-19T05:06:08;26.13;;;26.02;;
24787;SDS011;12883;52.662;5.196;2022-08-19T05:08:36;28.15;;;28.05;;
24787;SDS011;12883;52.662;5.196;2022-08-19T05:11:19;28.33;;;28.23;;
24787;SDS011;12883;52.662;5.196;2022-08-19T05:13:50;29.08;;;28.98;;
24787;SDS011;12883;52.662;5.196;2022-08-19T05:16:17;29.17;;;29.08;;
24787;SDS011;12883;52.662;5.196;2022-08-19T05:18:44;29.63;;;29.52;;
24787;SDS011;12883;52.662;5.196;2022-08-19T05:21:28;31.73;;;31.58;;
24787;SDS011;12883;52.662;5.196;2022-08-19T05:24:14;32.95;;;32.75;;
24787;SDS011;12883;52.662;5.196;2022-08-19T05:26:44;35.00;;;34.80;;
24787;SDS011;12883;52.662;5.196;2022-08-19T05:29:12;38.03;;;37.83;;
24787;SDS011;12883;52.662;5.196;2022-08-19T05:31:42;42.90;;;42.70;;
24787;SDS011;12883;52.662;5.196;2022-08-19T05:34:08;44.58;;;44.28;;
24787;SDS011;12883;52.662;5.196;2022-08-19T05:36:36;46.40;;;46.10;;
24787;SDS011;12883;52.662;5.196;2022-08-19T05:39:05;45.88;;;45.58;;
24787;SDS011;12883;52.662;5.196;2022-08-19T05:41:31;46.03;;;45.72;;
24787;SDS011;12883;52.662;5.196;2022-08-19T05:43:57;47.83;;;47.53;;
24787;SDS011;12883;52.662;5.196;2022-08-19T05:46:26;39.55;;;39.35;;
24787;SDS011;12883;52.662;5.196;2022-08-19T05:48:51;40.72;;;40.53;;
24787;SDS011;12883;52.662;5.196;2022-08-19T05:51:17;36.38;;;36.17;;
24787;SDS011;12883;52.662;5.196;2022-08-19T05:53:42;2.13;;;2.13;;
24787;SDS011;12883;52.662;5.196;2022-08-19T05:56:13;0.90;;;0.90;;
24787;SDS011;12883;52.662;5.196;2022-08-19T05:58:41;21.35;;;21.25;;
24787;SDS011;12883;52.662;5.196;2022-08-19T06:01:12;37.60;;;37.40;;
24787;SDS011;12883;52.662;5.196;2022-08-19T06:03:39;38.13;;;37.92;;
24787;SDS011;12883;52.662;5.196;2022-08-19T06:06:07;36.63;;;36.42;;
24787;SDS011;12883;52.662;5.196;2022-08-19T06:08:34;36.40;;;36.20;;
24787;SDS011;12883;52.662;5.196;2022-08-19T06:13:45;36.03;;;35.83;;
24787;SDS011;12883;52.662;5.196;2022-08-19T06:16:12;36.75;;;36.55;;
24787;SDS011;12883;52.662;5.196;2022-08-19T06:18:44;35.97;;;35.78;;
24787;SDS011;12883;52.662;5.196;2022-08-19T06:21:10;35.38;;;35.17;;
24787;SDS011;12883;52.662;5.196;2022-08-19T06:23:35;35.95;;;35.75;;
24787;SDS011;12883;52.662;5.196;2022-08-19T06:26:00;35.45;;;35.25;;
24787;SDS011;12883;52.662;5.196;2022-08-19T06:28:26;34.38;;;34.17;;
24787;SDS011;12883;52.662;5.196;2022-08-19T06:30:51;31.10;;;30.90;;
24787;SDS011;12883;52.662;5.196;2022-08-19T06:33:16;31.70;;;31.50;;
24787;SDS011;12883;52.662;5.196;2022-08-19T06:35:42;32.50;;;32.30;;
24787;SDS011;12883;52.662;5.196;2022-08-19T06:38:07;30.05;;;29.85;;
24787;SDS011;12883;52.662;5.196;2022-08-19T06:40:34;29.02;;;28.83;;
24787;SDS011;12883;52.662;5.196;2022-08-19T06:43:01;29.00;;;28.80;;
24787;SDS011;12883;52.662;5.196;2022-08-19T06:45:27;28.95;;;28.83;;
24787;SDS011;12883;52.662;5.196;2022-08-19T06:47:52;15.52;;;15.43;;
24787;SDS011;12883;52.662;5.196;2022-08-19T06:50:21;5.32;;;5.32;;
24787;SDS011;12883;52.662;5.196;2022-08-19T06:52:48;2.63;;;2.63;;
24787;SDS011;12883;52.662;5.196;2022-08-19T06:55:13;1.15;;;1.15;;
24787;SDS011;12883;52.662;5.196;2022-08-19T06:57:40;1.48;;;1.48;;
24787;SDS011;12883;52.662;5.196;2022-08-19T07:00:07;27.48;;;27.27;;
24787;SDS011;12883;52.662;5.196;2022-08-19T07:02:38;27.48;;;27.35;;
24787;SDS011;12883;52.662;5.196;2022-08-19T07:05:04;29.02;;;28.83;;
24787;SDS011;12883;52.662;5.196;2022-08-19T07:07:30;27.77;;;27.58;;
24787;SDS011;12883;52.662;5.196;2022-08-19T07:09:56;29.50;;;29.30;;
24787;SDS011;12883;52.662;5.196;2022-08-19T07:12:21;29.90;;;29.70;;
24787;SDS011;12883;52.662;5.196;2022-08-19T07:14:47;28.63;;;28.48;;
24787;SDS011;12883;52.662;5.196;2022-08-19T07:17:13;31.95;;;31.75;;
24787;SDS011;12883;52.662;5.196;2022-08-19T07:19:40;31.95;;;31.75;;
24787;SDS011;12883;52.662;5.196;2022-08-19T07:22:07;30.88;;;30.67;;
24787;SDS011;12883;52.662;5.196;2022-08-19T07:24:33;33.30;;;33.10;;
24787;SDS011;12883;52.662;5.196;2022-08-19T07:26:59;32.60;;;32.40;;
24787;SDS011;12883;52.662;5.196;2022-08-19T07:29:28;33.10;;;32.90;;
24787;SDS011;12883;52.662;5.196;2022-08-19T07:31:55;32.20;;;32.00;;
24787;SDS011;12883;52.662;5.196;2022-08-19T07:34:23;33.88;;;33.67;;
24787;SDS011;12883;52.662;5.196;2022-08-19T07:36:50;34.17;;;33.97;;
24787;SDS011;12883;52.662;5.196;2022-08-19T07:39:19;34.17;;;33.97;;
24787;SDS011;12883;52.662;5.196;2022-08-19T07:41:49;33.35;;;33.15;;
24787;SDS011;12883;52.662;5.196;2022-08-19T07:44:15;30.45;;;30.25;;
24787;SDS011;12883;52.662;5.196;2022-08-19T07:46:43;10.20;;;10.20;;
24787;SDS011;12883;52.662;5.196;2022-08-19T07:49:10;8.70;;;8.70;;
24787;SDS011;12883;52.662;5.196;2022-08-19T07:51:42;5.63;;;5.63;;
24787;SDS011;12883;52.662;5.196;2022-08-19T07:54:08;1.20;;;1.20;;
24787;SDS011;12883;52.662;5.196;2022-08-19T07:56:34;1.00;;;1.00;;
24787;SDS011;12883;52.662;5.196;2022-08-19T07:58:59;29.08;;;28.88;;
24787;SDS011;12883;52.662;5.196;2022-08-19T08:01:26;27.90;;;27.70;;
24787;SDS011;12883;52.662;5.196;2022-08-19T08:03:52;26.23;;;26.02;;
24787;SDS011;12883;52.662;5.196;2022-08-19T08:06:38;24.58;;;24.48;;
24787;SDS011;12883;52.662;5.196;2022-08-19T08:09:24;24.45;;;24.35;;
24787;SDS011;12883;52.662;5.196;2022-08-19T08:11:58;24.02;;;23.92;;
24787;SDS011;12883;52.662;5.196;2022-08-19T08:14:27;21.13;;;21.02;;
24787;SDS011;12883;52.662;5.196;2022-08-19T08:16:57;18.95;;;18.85;;
24787;SDS011;12883;52.662;5.196;2022-08-19T08:19:23;19.23;;;19.13;;
24787;SDS011;12883;52.662;5.196;2022-08-19T08:21:50;18.05;;;17.95;;
24787;SDS011;12883;52.662;5.196;2022-08-19T08:24:17;16.13;;;16.02;;
24787;SDS011;12883;52.662;5.196;2022-08-19T08:26:43;19.10;;;19.00;;
24787;SDS011;12883;52.662;5.196;2022-08-19T08:29:10;19.25;;;19.15;;
24787;SDS011;12883;52.662;5.196;2022-08-19T08:31:38;17.40;;;17.30;;
24787;SDS011;12883;52.662;5.196;2022-08-19T08:34:05;18.90;;;18.80;;
24787;SDS011;12883;52.662;5.196;2022-08-19T08:36:30;19.67;;;19.58;;
24787;SDS011;12883;52.662;5.196;2022-08-19T08:38:58;18.65;;;18.55;;
24787;SDS011;12883;52.662;5.196;2022-08-19T08:43:59;17.58;;;17.48;;
24787;SDS011;12883;52.662;5.196;2022-08-19T08:49:18;3.55;;;3.55;;
24787;SDS011;12883;52.662;5.196;2022-08-19T08:54:34;1.00;;;1.00;;
24787;SDS011;12883;52.662;5.196;2022-08-19T08:57:07;0.60;;;0.60;;
24787;SDS011;12883;52.662;5.196;2022-08-19T08:59:43;15.90;;;15.80;;
24787;SDS011;12883;52.662;5.196;2022-08-19T09:02:15;14.13;;;14.02;;
24787;SDS011;12883;52.662;5.196;2022-08-19T09:04:41;15.48;;;15.38;;
24787;SDS011;12883;52.662;5.196;2022-08-19T09:09:49;12.45;;;12.35;;
24787;SDS011;12883;52.662;5.196;2022-08-19T09:15:14;12.63;;;12.55;;
24787;SDS011;12883;52.662;5.196;2022-08-19T09:17:42;12.85;;;12.75;;
24787;SDS011;12883;52.662;5.196;2022-08-19T09:22:35;11.90;;;11.88;;
24787;SDS011;12883;52.662;5.196;2022-08-19T09:25:03;10.52;;;10.52;;
24787;SDS011;12883;52.662;5.196;2022-08-19T09:27:30;9.23;;;9.23;;
24787;SDS011;12883;52.662;5.196;2022-08-19T09:29:57;9.85;;;9.85;;
24787;SDS011;12883;52.662;5.196;2022-08-19T09:32:23;10.75;;;10.75;;
24787;SDS011;12883;52.662;5.196;2022-08-19T09:34:49;10.65;;;10.65;;
24787;SDS011;12883;52.662;5.196;2022-08-19T09:37:15;11.43;;;11.43;;
24787;SDS011;12883;52.662;5.196;2022-08-19T09:39:40;10.07;;;10.07;;
24787;SDS011;12883;52.662;5.196;2022-08-19T09:42:07;8.93;;;8.93;;
24787;SDS011;12883;52.662;5.196;2022-08-19T09:44:39;11.32;;;11.32;;
24787;SDS011;12883;52.662;5.196;2022-08-19T09:47:08;3.72;;;3.72;;
24787;SDS011;12883;52.662;5.196;2022-08-19T09:49:34;2.35;;;2.35;;
24787;SDS011;12883;52.662;5.196;2022-08-19T09:52:00;0.80;;;0.80;;
24787;SDS011;12883;52.662;5.196;2022-08-19T09:54:26;0.90;;;0.90;;
24787;SDS011;12883;52.662;5.196;2022-08-19T09:56:52;0.60;;;0.60;;
24787;SDS011;12883;52.662;5.196;2022-08-19T09:59:18;10.68;;;10.68;;
24787;SDS011;12883;52.662;5.196;2022-08-19T10:01:43;10.43;;;10.43;;
24787;SDS011;12883;52.662;5.196;2022-08-19T10:04:09;10.75;;;10.65;;
24787;SDS011;12883;52.662;5.196;2022-08-19T10:06:36;10.27;;;10.27;;
24787;SDS011;12883;52.662;5.196;2022-08-19T10:09:05;10.32;;;10.32;;
24787;SDS011;12883;52.662;5.196;2022-08-19T10:11:33;8.70;;;8.70;;
24787;SDS011;12883;52.662;5.196;2022-08-19T10:14:00;10.52;;;10.52;;
24787;SDS011;12883;52.662;5.196;2022-08-19T10:16:26;9.65;;;9.65;;
24787;SDS011;12883;52.662;5.196;2022-08-19T10:18:52;9.30;;;9.30;;
24787;SDS011;12883;52.662;5.196;2022-08-19T10:21:20;11.38;;;11.38;;
24787;SDS011;12883;52.662;5.196;2022-08-19T10:23:54;9.93;;;9.93;;
24787;SDS011;12883;52.662;5.196;2022-08-19T10:26:23;10.50;;;10.50;;
24787;SDS011;12883;52.662;5.196;2022-08-19T10:28:53;10.18;;;10.18;;
24787;SDS011;12883;52.662;5.196;2022-08-19T10:31:20;11.43;;;11.43;;
24787;SDS011;12883;52.662;5.196;2022-08-19T10:33:48;10.73;;;10.73;;
24787;SDS011;12883;52.662;5.196;2022-08-19T10:36:18;11.15;;;11.15;;
24787;SDS011;12883;52.662;5.196;2022-08-19T10:38:46;9.88;;;9.88;;
24787;SDS011;12883;52.662;5.196;2022-08-19T10:41:15;9.73;;;9.73;;
24787;SDS011;12883;52.662;5.196;2022-08-19T10:43:47;10.18;;;10.18;;
24787;SDS011;12883;52.662;5.196;2022-08-19T10:46:18;2.72;;;2.72;;
24787;SDS011;12883;52.662;5.196;2022-08-19T10:48:43;1.30;;;1.30;;
24787;SDS011;12883;52.662;5.196;2022-08-19T10:51:09;0.82;;;0.82;;
24787;SDS011;12883;52.662;5.196;2022-08-19T10:53:55;0.63;;;0.63;;
24787;SDS011;12883;52.662;5.196;2022-08-19T10:56:22;0.70;;;0.70;;
24787;SDS011;12883;52.662;5.196;2022-08-19T10:59:06;10.43;;;10.43;;
24787;SDS011;12883;52.662;5.196;2022-08-19T11:01:32;13.00;;;13.00;;
24787;SDS011;12883;52.662;5.196;2022-08-19T11:03:59;11.48;;;11.48;;
24787;SDS011;12883;52.662;5.196;2022-08-19T11:06:26;10.38;;;10.38;;
24787;SDS011;12883;52.662;5.196;2022-08-19T11:08:52;10.98;;;10.88;;
24787;SDS011;12883;52.662;5.196;2022-08-19T11:11:21;10.05;;;10.05;;
24787;SDS011;12883;52.662;5.196;2022-08-19T11:13:47;10.18;;;10.18;;
24787;SDS011;12883;52.662;5.196;2022-08-19T11:16:16;10.43;;;10.43;;
24787;SDS011;12883;52.662;5.196;2022-08-19T11:18:45;11.65;;;11.65;;
24787;SDS011;12883;52.662;5.196;2022-08-19T11:23:42;10.52;;;10.52;;
24787;SDS011;12883;52.662;5.196;2022-08-19T11:26:08;10.25;;;10.25;;
24787;SDS011;12883;52.662;5.196;2022-08-19T11:28:35;8.82;;;8.82;;
24787;SDS011;12883;52.662;5.196;2022-08-19T11:31:00;9.80;;;9.80;;
24787;SDS011;12883;52.662;5.196;2022-08-19T11:33:28;9.40;;;9.40;;
24787;SDS011;12883;52.662;5.196;2022-08-19T11:35:56;9.32;;;9.32;;
24787;SDS011;12883;52.662;5.196;2022-08-19T11:38:24;9.70;;;9.70;;
24787;SDS011;12883;52.662;5.196;2022-08-19T11:40:57;9.63;;;9.63;;
24787;SDS011;12883;52.662;5.196;2022-08-19T11:43:25;10.10;;;10.10;;
24787;SDS011;12883;52.662;5.196;2022-08-19T11:45:52;1.45;;;1.45;;
24787;SDS011;12883;52.662;5.196;2022-08-19T11:48:18;1.17;;;1.17;;
24787;SDS011;12883;52.662;5.196;2022-08-19T11:50:47;0.40;;;0.40;;
24787;SDS011;12883;52.662;5.196;2022-08-19T11:53:13;1.25;;;1.25;;
24787;SDS011;12883;52.662;5.196;2022-08-19T11:55:38;0.30;;;0.30;;
24787;SDS011;12883;52.662;5.196;2022-08-19T11:58:05;0.40;;;0.40;;
24787;SDS011;12883;52.662;5.196;2022-08-19T12:00:31;8.00;;;8.00;;
24787;SDS011;12883;52.662;5.196;2022-08-19T12:03:00;8.32;;;8.32;;
24787;SDS011;12883;52.662;5.196;2022-08-19T12:05:26;10.05;;;10.05;;
24787;SDS011;12883;52.662;5.196;2022-08-19T12:07:51;8.70;;;8.70;;
24787;SDS011;12883;52.662;5.196;2022-08-19T12:10:16;10.07;;;10.07;;
24787;SDS011;12883;52.662;5.196;2022-08-19T12:12:42;9.43;;;9.43;;
24787;SDS011;12883;52.662;5.196;2022-08-19T12:15:10;9.13;;;9.13;;
24787;SDS011;12883;52.662;5.196;2022-08-19T12:17:36;8.82;;;8.82;;
24787;SDS011;12883;52.662;5.196;2022-08-19T12:20:03;8.52;;;8.52;;
24787;SDS011;12883;52.662;5.196;2022-08-19T12:22:29;8.25;;;8.25;;
24787;SDS011;12883;52.662;5.196;2022-08-19T12:24:54;8.20;;;8.20;;
24787;SDS011;12883;52.662;5.196;2022-08-19T12:27:20;8.10;;;8.10;;
24787;SDS011;12883;52.662;5.196;2022-08-19T12:29:46;7.45;;;7.45;;
24787;SDS011;12883;52.662;5.196;2022-08-19T12:32:11;7.75;;;7.75;;
24787;SDS011;12883;52.662;5.196;2022-08-19T12:34:37;7.20;;;7.20;;
24787;SDS011;12883;52.662;5.196;2022-08-19T12:37:04;7.40;;;7.40;;
24787;SDS011;12883;52.662;5.196;2022-08-19T12:39:33;6.97;;;6.97;;
24787;SDS011;12883;52.662;5.196;2022-08-19T12:42:04;6.25;;;6.25;;
24787;SDS011;12883;52.662;5.196;2022-08-19T12:44:29;6.38;;;6.38;;
24787;SDS011;12883;52.662;5.196;2022-08-19T12:46:56;2.75;;;2.75;;
24787;SDS011;12883;52.662;5.196;2022-08-19T12:49:22;0.85;;;0.85;;
24787;SDS011;12883;52.662;5.196;2022-08-19T12:51:49;0.40;;;0.40;;
24787;SDS011;12883;52.662;5.196;2022-08-19T12:54:14;0.50;;;0.50;;
24787;SDS011;12883;52.662;5.196;2022-08-19T12:56:39;0.50;;;0.50;;
24787;SDS011;12883;52.662;5.196;2022-08-19T12:59:07;4.15;;;4.15;;
24787;SDS011;12883;52.662;5.196;2022-08-19T13:01:33;4.00;;;4.00;;
24787;SDS011;12883;52.662;5.196;2022-08-19T13:03:59;3.13;;;3.13;;
24787;SDS011;12883;52.662;5.196;2022-08-19T13:06:25;4.18;;;4.18;;
24787;SDS011;12883;52.662;5.196;2022-08-19T13:08:51;3.72;;;3.72;;
24787;SDS011;12883;52.662;5.196;2022-08-19T13:11:18;4.07;;;4.07;;
24787;SDS011;12883;52.662;5.196;2022-08-19T13:13:45;3.45;;;3.45;;
24787;SDS011;12883;52.662;5.196;2022-08-19T13:16:12;3.72;;;3.72;;
24787;SDS011;12883;52.662;5.196;2022-08-19T13:18:39;3.83;;;3.83;;
24787;SDS011;12883;52.662;5.196;2022-08-19T13:21:06;3.95;;;3.95;;
24787;SDS011;12883;52.662;5.196;2022-08-19T13:23:33;3.30;;;3.30;;
24787;SDS011;12883;52.662;5.196;2022-08-19T13:26:01;3.38;;;3.38;;
24787;SDS011;12883;52.662;5.196;2022-08-19T13:28:29;3.60;;;3.60;;
24787;SDS011;12883;52.662;5.196;2022-08-19T13:31:16;2.88;;;2.88;;
24787;SDS011;12883;52.662;5.196;2022-08-19T13:34:02;2.20;;;2.20;;
24787;SDS011;12883;52.662;5.196;2022-08-19T13:36:27;2.45;;;2.45;;
24787;SDS011;12883;52.662;5.196;2022-08-19T13:38:53;2.00;;;2.00;;
24787;SDS011;12883;52.662;5.196;2022-08-19T13:41:18;2.10;;;2.10;;
24787;SDS011;12883;52.662;5.196;2022-08-19T13:43:44;2.05;;;2.05;;
24787;SDS011;12883;52.662;5.196;2022-08-19T13:46:09;0.25;;;0.25;;
24787;SDS011;12883;52.662;5.196;2022-08-19T13:48:39;1.02;;;1.02;;
24787;SDS011;12883;52.662;5.196;2022-08-19T13:51:05;0.28;;;0.28;;
24787;SDS011;12883;52.662;5.196;2022-08-19T13:53:34;0.15;;;0.15;;
24787;SDS011;12883;52.662;5.196;2022-08-19T13:56:11;0.20;;;0.20;;
24787;SDS011;12883;52.662;5.196;2022-08-19T13:58:38;1.55;;;1.55;;
24787;SDS011;12883;52.662;5.196;2022-08-19T14:01:04;2.10;;;2.10;;
24787;SDS011;12883;52.662;5.196;2022-08-19T14:03:31;1.52;;;1.52;;
24787;SDS011;12883;52.662;5.196;2022-08-19T14:05:58;1.52;;;1.52;;
24787;SDS011;12883;52.662;5.196;2022-08-19T14:08:24;1.60;;;1.60;;
24787;SDS011;12883;52.662;5.196;2022-08-19T14:10:52;1.45;;;1.45;;
24787;SDS011;12883;52.662;5.196;2022-08-19T14:13:19;1.50;;;1.50;;
24787;SDS011;12883;52.662;5.196;2022-08-19T14:15:46;1.50;;;1.50;;
24787;SDS011;12883;52.662;5.196;2022-08-19T14:18:12;2.05;;;2.05;;
24787;SDS011;12883;52.662;5.196;2022-08-19T14:20:38;1.50;;;1.50;;
24787;SDS011;12883;52.662;5.196;2022-08-19T14:23:04;2.08;;;2.08;;
24787;SDS011;12883;52.662;5.196;2022-08-19T14:25:32;1.75;;;1.75;;
24787;SDS011;12883;52.662;5.196;2022-08-19T14:27:58;1.63;;;1.63;;
24787;SDS011;12883;52.662;5.196;2022-08-19T14:30:26;1.95;;;1.95;;
24787;SDS011;12883;52.662;5.196;2022-08-19T14:32:56;1.92;;;1.92;;
24787;SDS011;12883;52.662;5.196;2022-08-19T14:35:24;1.65;;;1.65;;
24787;SDS011;12883;52.662;5.196;2022-08-19T14:37:51;1.90;;;1.90;;
24787;SDS011;12883;52.662;5.196;2022-08-19T14:40:20;1.13;;;1.13;;
24787;SDS011;12883;52.662;5.196;2022-08-19T14:42:51;1.23;;;1.23;;
24787;SDS011;12883;52.662;5.196;2022-08-19T14:45:24;1.20;;;1.20;;
24787;SDS011;12883;52.662;5.196;2022-08-19T14:47:53;1.30;;;1.30;;
24787;SDS011;12883;52.662;5.196;2022-08-19T14:50:19;1.50;;;1.50;;
24787;SDS011;12883;52.662;5.196;2022-08-19T14:52:45;1.33;;;1.33;;
24787;SDS011;12883;52.662;5.196;2022-08-19T14:55:12;1.30;;;1.30;;
24787;SDS011;12883;52.662;5.196;2022-08-19T14:57:40;1.70;;;1.70;;
24787;SDS011;12883;52.662;5.196;2022-08-19T15:00:06;1.80;;;1.80;;